sensor_id;sensor_type;location;lat;lon;timestamp;temperature;humidity
32147;DHT22;32190;49.112;8.598;2023-03-14T00:04:47;16.90;55.50
32147;DHT22;32190;49.112;8.598;2023-03-14T00:10:40;16.90;55.60
32147;DHT22;32190;49.112;8.598;2023-03-14T00:16:31;16.90;55.60
32147;DHT22;32190;49.112;8.598;2023-03-14T00:22:22;16.80;55.60
32147;DHT22;32190;49.112;8.598;2023-03-14T00:28:12;16.80;55.50
32147;DHT22;32190;49.112;8.598;2023-03-14T00:34:03;16.80;55.50
32147;DHT22;32190;49.112;8.598;2023-03-14T00:39:53;16.80;55.30
32147;DHT22;32190;49.112;8.598;2023-03-14T00:45:44;16.80;55.30
32147;DHT22;32190;49.112;8.598;2023-03-14T00:51:34;16.80;55.40
32147;DHT22;32190;49.112;8.598;2023-03-14T00:57:25;16.80;55.40
32147;DHT22;32190;49.112;8.598;2023-03-14T01:03:16;16.80;55.30
32147;DHT22;32190;49.112;8.598;2023-03-14T01:09:06;16.70;55.20
32147;DHT22;32190;49.112;8.598;2023-03-14T01:14:57;16.70;55.10
32147;DHT22;32190;49.112;8.598;2023-03-14T01:20:47;16.70;55.20
32147;DHT22;32190;49.112;8.598;2023-03-14T01:26:38;16.70;55.20
32147;DHT22;32190;49.112;8.598;2023-03-14T01:32:29;16.70;55.20
32147;DHT22;32190;49.112;8.598;2023-03-14T01:38:19;16.70;55.20
32147;DHT22;32190;49.112;8.598;2023-03-14T01:44:11;16.60;55.20
32147;DHT22;32190;49.112;8.598;2023-03-14T01:50:07;16.60;55.20
32147;DHT22;32190;49.112;8.598;2023-03-14T01:56:00;16.50;55.20
32147;DHT22;32190;49.112;8.598;2023-03-14T02:01:51;16.50;55.30
32147;DHT22;32190;49.112;8.598;2023-03-14T02:07:48;16.40;55.50
32147;DHT22;32190;49.112;8.598;2023-03-14T02:13:40;16.40;55.60
32147;DHT22;32190;49.112;8.598;2023-03-14T02:25:54;16.30;55.70
32147;DHT22;32190;49.112;8.598;2023-03-14T02:31:48;16.30;55.80
32147;DHT22;32190;49.112;8.598;2023-03-14T02:37:43;16.30;55.80
32147;DHT22;32190;49.112;8.598;2023-03-14T03:02:27;16.00;55.90
32147;DHT22;32190;49.112;8.598;2023-03-14T03:08:19;15.90;55.90
32147;DHT22;32190;49.112;8.598;2023-03-14T03:14:10;15.90;55.90
32147;DHT22;32190;49.112;8.598;2023-03-14T03:20:00;15.80;56.00
32147;DHT22;32190;49.112;8.598;2023-03-14T03:25:51;15.80;56.00
32147;DHT22;32190;49.112;8.598;2023-03-14T03:31:42;15.80;55.90
32147;DHT22;32190;49.112;8.598;2023-03-14T03:37:33;15.80;55.90
32147;DHT22;32190;49.112;8.598;2023-03-14T03:43:24;15.70;55.80
32147;DHT22;32190;49.112;8.598;2023-03-14T03:49:15;15.70;55.80
32147;DHT22;32190;49.112;8.598;2023-03-14T03:55:05;15.70;55.70
32147;DHT22;32190;49.112;8.598;2023-03-14T04:00:56;15.60;56.20
32147;DHT22;32190;49.112;8.598;2023-03-14T04:06:47;15.60;55.50
32147;DHT22;32190;49.112;8.598;2023-03-14T04:12:37;15.60;55.50
32147;DHT22;32190;49.112;8.598;2023-03-14T04:18:28;15.60;55.40
32147;DHT22;32190;49.112;8.598;2023-03-14T04:24:20;15.60;55.20
32147;DHT22;32190;49.112;8.598;2023-03-14T04:30:11;15.60;55.00
32147;DHT22;32190;49.112;8.598;2023-03-14T04:36:01;15.60;55.00
32147;DHT22;32190;49.112;8.598;2023-03-14T04:41:52;15.60;54.80
32147;DHT22;32190;49.112;8.598;2023-03-14T04:47:43;15.50;54.70
32147;DHT22;32190;49.112;8.598;2023-03-14T04:53:33;15.50;54.50
32147;DHT22;32190;49.112;8.598;2023-03-14T04:59:24;15.50;54.60
32147;DHT22;32190;49.112;8.598;2023-03-14T05:05:15;15.40;54.40
32147;DHT22;32190;49.112;8.598;2023-03-14T05:11:06;15.40;54.20
32147;DHT22;32190;49.112;8.598;2023-03-14T05:16:56;15.40;54.10
32147;DHT22;32190;49.112;8.598;2023-03-14T05:22:47;15.40;54.20
32147;DHT22;32190;49.112;8.598;2023-03-14T05:28:38;15.40;54.10
32147;DHT22;32190;49.112;8.598;2023-03-14T05:52:29;15.30;54.10
32147;DHT22;32190;49.112;8.598;2023-03-14T05:58:20;15.30;53.90
32147;DHT22;32190;49.112;8.598;2023-03-14T06:04:11;15.30;53.80
32147;DHT22;32190;49.112;8.598;2023-03-14T06:10:02;15.30;53.80
32147;DHT22;32190;49.112;8.598;2023-03-14T06:15:53;15.20;54.40
32147;DHT22;32190;49.112;8.598;2023-03-14T06:21:43;15.20;54.00
32147;DHT22;32190;49.112;8.598;2023-03-14T06:27:34;15.20;54.00
32147;DHT22;32190;49.112;8.598;2023-03-14T06:33:25;15.20;54.10
32147;DHT22;32190;49.112;8.598;2023-03-14T06:39:15;15.10;54.10
32147;DHT22;32190;49.112;8.598;2023-03-14T06:45:06;15.20;54.20
32147;DHT22;32190;49.112;8.598;2023-03-14T06:50:57;15.10;54.20
32147;DHT22;32190;49.112;8.598;2023-03-14T06:56:48;15.20;54.20
32147;DHT22;32190;49.112;8.598;2023-03-14T07:02:39;15.20;54.20
32147;DHT22;32190;49.112;8.598;2023-03-14T07:08:29;15.20;54.20
32147;DHT22;32190;49.112;8.598;2023-03-14T07:14:20;15.20;54.10
32147;DHT22;32190;49.112;8.598;2023-03-14T07:20:11;15.20;54.20
32147;DHT22;32190;49.112;8.598;2023-03-14T07:26:02;15.20;54.20
32147;DHT22;32190;49.112;8.598;2023-03-14T07:31:52;15.20;54.20
32147;DHT22;32190;49.112;8.598;2023-03-14T07:37:43;15.20;54.20
32147;DHT22;32190;49.112;8.598;2023-03-14T07:43:33;15.20;54.30
32147;DHT22;32190;49.112;8.598;2023-03-14T07:49:24;15.30;54.30
32147;DHT22;32190;49.112;8.598;2023-03-14T07:55:15;15.30;54.30
32147;DHT22;32190;49.112;8.598;2023-03-14T08:08:05;15.30;54.40
32147;DHT22;32190;49.112;8.598;2023-03-14T08:14:01;15.40;54.50
32147;DHT22;32190;49.112;8.598;2023-03-14T08:19:52;15.60;54.50
32147;DHT22;32190;49.112;8.598;2023-03-14T08:31:43;15.80;54.30
32147;DHT22;32190;49.112;8.598;2023-03-14T08:37:35;15.80;53.90
32147;DHT22;32190;49.112;8.598;2023-03-14T08:43:26;15.80;53.90
32147;DHT22;32190;49.112;8.598;2023-03-14T08:49:20;15.80;54.00
32147;DHT22;32190;49.112;8.598;2023-03-14T08:55:11;15.80;54.00
32147;DHT22;32190;49.112;8.598;2023-03-14T09:01:01;15.70;54.80
32147;DHT22;32190;49.112;8.598;2023-03-14T09:06:52;15.80;54.20
32147;DHT22;32190;49.112;8.598;2023-03-14T09:12:42;15.80;54.10
32147;DHT22;32190;49.112;8.598;2023-03-14T09:18:33;15.80;54.00
32147;DHT22;32190;49.112;8.598;2023-03-14T09:24:24;15.80;54.00
32147;DHT22;32190;49.112;8.598;2023-03-14T09:30:14;15.80;54.10
32147;DHT22;32190;49.112;8.598;2023-03-14T09:36:06;15.80;54.20
32147;DHT22;32190;49.112;8.598;2023-03-14T09:41:58;15.90;54.00
32147;DHT22;32190;49.112;8.598;2023-03-14T09:47:52;15.90;54.10
32147;DHT22;32190;49.112;8.598;2023-03-14T09:53:45;15.90;54.00
32147;DHT22;32190;49.112;8.598;2023-03-14T09:59:36;16.00;54.10
32147;DHT22;32190;49.112;8.598;2023-03-14T10:05:27;16.10;54.10
32147;DHT22;32190;49.112;8.598;2023-03-14T10:11:20;16.00;53.90
32147;DHT22;32190;49.112;8.598;2023-03-14T10:17:12;16.00;53.90
32147;DHT22;32190;49.112;8.598;2023-03-14T10:29:12;16.00;54.20
32147;DHT22;32190;49.112;8.598;2023-03-14T10:35:23;16.00;54.40
32147;DHT22;32190;49.112;8.598;2023-03-14T10:41:24;15.90;54.60
32147;DHT22;32190;49.112;8.598;2023-03-14T10:47:19;15.90;54.90
32147;DHT22;32190;49.112;8.598;2023-03-14T10:53:10;15.90;55.10
32147;DHT22;32190;49.112;8.598;2023-03-14T10:59:02;15.80;55.20
32147;DHT22;32190;49.112;8.598;2023-03-14T11:05:19;15.70;55.40
32147;DHT22;32190;49.112;8.598;2023-03-14T11:11:26;15.70;56.00
32147;DHT22;32190;49.112;8.598;2023-03-14T11:17:34;15.70;56.10
32147;DHT22;32190;49.112;8.598;2023-03-14T11:36:00;15.60;56.90
32147;DHT22;32190;49.112;8.598;2023-03-14T11:41:53;15.50;56.40
32147;DHT22;32190;49.112;8.598;2023-03-14T11:47:51;15.50;56.90
32147;DHT22;32190;49.112;8.598;2023-03-14T12:06:19;15.30;57.60
32147;DHT22;32190;49.112;8.598;2023-03-14T12:12:16;15.20;57.00
32147;DHT22;32190;49.112;8.598;2023-03-14T12:24:26;15.00;56.10
32147;DHT22;32190;49.112;8.598;2023-03-14T12:30:29;14.80;56.40
32147;DHT22;32190;49.112;8.598;2023-03-14T12:42:58;14.60;56.20
32147;DHT22;32190;49.112;8.598;2023-03-14T12:48:54;14.60;55.90
32147;DHT22;32190;49.112;8.598;2023-03-14T12:55:21;14.60;55.40
32147;DHT22;32190;49.112;8.598;2023-03-14T13:01:19;14.50;54.40
32147;DHT22;32190;49.112;8.598;2023-03-14T13:13:24;14.60;53.00
32147;DHT22;32190;49.112;8.598;2023-03-14T13:19:28;14.60;52.20
32147;DHT22;32190;49.112;8.598;2023-03-14T13:25:19;14.60;52.00
32147;DHT22;32190;49.112;8.598;2023-03-14T13:31:23;14.70;50.90
32147;DHT22;32190;49.112;8.598;2023-03-14T13:37:22;14.70;49.50
32147;DHT22;32190;49.112;8.598;2023-03-14T13:43:32;14.80;47.50
32147;DHT22;32190;49.112;8.598;2023-03-14T13:49:24;14.70;48.20
32147;DHT22;32190;49.112;8.598;2023-03-14T13:55:17;14.80;48.50
32147;DHT22;32190;49.112;8.598;2023-03-14T14:01:29;14.80;48.60
32147;DHT22;32190;49.112;8.598;2023-03-14T14:07:21;14.70;46.10
32147;DHT22;32190;49.112;8.598;2023-03-14T14:13:15;14.70;47.20
32147;DHT22;32190;49.112;8.598;2023-03-14T14:19:09;14.70;47.40
32147;DHT22;32190;49.112;8.598;2023-03-14T14:25:00;14.70;47.60
32147;DHT22;32190;49.112;8.598;2023-03-14T14:31:04;14.70;47.00
32147;DHT22;32190;49.112;8.598;2023-03-14T14:36:55;14.70;46.40
32147;DHT22;32190;49.112;8.598;2023-03-14T14:42:47;14.70;45.70
32147;DHT22;32190;49.112;8.598;2023-03-14T14:48:38;14.60;46.30
32147;DHT22;32190;49.112;8.598;2023-03-14T14:54:34;14.70;46.40
32147;DHT22;32190;49.112;8.598;2023-03-14T15:00:27;14.70;46.50
32147;DHT22;32190;49.112;8.598;2023-03-14T15:39:51;14.90;44.50
32147;DHT22;32190;49.112;8.598;2023-03-14T15:45:41;14.90;44.30
32147;DHT22;32190;49.112;8.598;2023-03-14T15:51:32;14.90;44.60
32147;DHT22;32190;49.112;8.598;2023-03-14T15:57:22;14.80;44.10
32147;DHT22;32190;49.112;8.598;2023-03-14T16:03:13;14.80;44.50
32147;DHT22;32190;49.112;8.598;2023-03-14T16:09:04;14.80;44.60
32147;DHT22;32190;49.112;8.598;2023-03-14T16:14:54;14.90;44.50
32147;DHT22;32190;49.112;8.598;2023-03-14T16:20:51;14.90;44.20
32147;DHT22;32190;49.112;8.598;2023-03-14T16:26:42;14.90;44.30
32147;DHT22;32190;49.112;8.598;2023-03-14T16:32:35;15.00;44.70
32147;DHT22;32190;49.112;8.598;2023-03-14T16:38:26;15.10;44.50
32147;DHT22;32190;49.112;8.598;2023-03-14T16:44:17;15.20;44.90
32147;DHT22;32190;49.112;8.598;2023-03-14T16:50:07;15.20;44.40
32147;DHT22;32190;49.112;8.598;2023-03-14T16:55:58;15.30;44.40
32147;DHT22;32190;49.112;8.598;2023-03-14T17:01:49;15.30;44.10
32147;DHT22;32190;49.112;8.598;2023-03-14T17:07:40;15.30;44.50
32147;DHT22;32190;49.112;8.598;2023-03-14T17:13:30;15.20;44.50
32147;DHT22;32190;49.112;8.598;2023-03-14T17:19:21;15.20;44.30
32147;DHT22;32190;49.112;8.598;2023-03-14T17:25:12;15.20;44.40
32147;DHT22;32190;49.112;8.598;2023-03-14T17:31:05;15.10;44.60
32147;DHT22;32190;49.112;8.598;2023-03-14T17:36:56;15.10;44.70
32147;DHT22;32190;49.112;8.598;2023-03-14T18:14:35;14.80;45.40
32147;DHT22;32190;49.112;8.598;2023-03-14T18:20:26;14.80;45.30
32147;DHT22;32190;49.112;8.598;2023-03-14T18:26:18;14.70;45.50
32147;DHT22;32190;49.112;8.598;2023-03-14T18:32:09;14.60;45.70
32147;DHT22;32190;49.112;8.598;2023-03-14T18:38:00;14.50;45.90
32147;DHT22;32190;49.112;8.598;2023-03-14T18:43:51;14.40;46.00
32147;DHT22;32190;49.112;8.598;2023-03-14T18:49:42;14.40;46.20
32147;DHT22;32190;49.112;8.598;2023-03-14T18:55:33;14.40;46.40
32147;DHT22;32190;49.112;8.598;2023-03-14T19:01:24;14.30;46.30
32147;DHT22;32190;49.112;8.598;2023-03-14T19:07:20;14.20;46.50
32147;DHT22;32190;49.112;8.598;2023-03-14T19:13:12;14.20;46.60
32147;DHT22;32190;49.112;8.598;2023-03-14T19:50:10;13.30;48.20
32147;DHT22;32190;49.112;8.598;2023-03-14T19:56:01;13.30;48.40
32147;DHT22;32190;49.112;8.598;2023-03-14T20:01:51;13.40;48.60
32147;DHT22;32190;49.112;8.598;2023-03-14T20:07:44;13.40;48.60
32147;DHT22;32190;49.112;8.598;2023-03-14T20:13:36;13.50;48.70
32147;DHT22;32190;49.112;8.598;2023-03-14T20:19:27;13.50;48.80
32147;DHT22;32190;49.112;8.598;2023-03-14T20:25:17;13.50;48.80
32147;DHT22;32190;49.112;8.598;2023-03-14T20:31:08;13.40;49.00
32147;DHT22;32190;49.112;8.598;2023-03-14T20:36:59;13.40;49.30
32147;DHT22;32190;49.112;8.598;2023-03-14T20:42:52;13.30;49.20
32147;DHT22;32190;49.112;8.598;2023-03-14T20:48:42;13.30;49.40
32147;DHT22;32190;49.112;8.598;2023-03-14T20:54:34;13.30;49.50
32147;DHT22;32190;49.112;8.598;2023-03-14T21:00:24;13.30;49.60
32147;DHT22;32190;49.112;8.598;2023-03-14T21:06:16;13.30;49.70
32147;DHT22;32190;49.112;8.598;2023-03-14T21:12:06;13.10;49.10
32147;DHT22;32190;49.112;8.598;2023-03-14T21:17:57;12.50;48.90
32147;DHT22;32190;49.112;8.598;2023-03-14T21:23:54;11.70;50.70
32147;DHT22;32190;49.112;8.598;2023-03-14T21:29:44;11.00;52.40
32147;DHT22;32190;49.112;8.598;2023-03-14T21:35:35;10.40;53.50
32147;DHT22;32190;49.112;8.598;2023-03-14T21:41:26;9.80;53.90
32147;DHT22;32190;49.112;8.598;2023-03-14T21:47:17;9.30;54.40
32147;DHT22;32190;49.112;8.598;2023-03-14T21:53:09;9.00;55.20
32147;DHT22;32190;49.112;8.598;2023-03-14T21:58:59;8.80;55.60
32147;DHT22;32190;49.112;8.598;2023-03-14T22:04:50;8.80;55.90
32147;DHT22;32190;49.112;8.598;2023-03-14T22:10:50;8.90;55.80
32147;DHT22;32190;49.112;8.598;2023-03-14T22:16:41;8.90;56.10
32147;DHT22;32190;49.112;8.598;2023-03-14T22:22:31;9.00;55.90
32147;DHT22;32190;49.112;8.598;2023-03-14T22:28:22;9.10;56.00
32147;DHT22;32190;49.112;8.598;2023-03-14T22:34:12;9.20;55.80
32147;DHT22;32190;49.112;8.598;2023-03-14T22:40:03;9.30;55.50
32147;DHT22;32190;49.112;8.598;2023-03-14T22:46:01;9.20;55.30
32147;DHT22;32190;49.112;8.598;2023-03-14T22:51:52;9.20;56.00
32147;DHT22;32190;49.112;8.598;2023-03-14T22:57:43;9.30;55.60
32147;DHT22;32190;49.112;8.598;2023-03-14T23:03:34;9.40;55.60
32147;DHT22;32190;49.112;8.598;2023-03-14T23:09:24;9.60;55.70
32147;DHT22;32190;49.112;8.598;2023-03-14T23:15:15;9.80;55.70
32147;DHT22;32190;49.112;8.598;2023-03-14T23:21:06;10.00;55.40
32147;DHT22;32190;49.112;8.598;2023-03-14T23:26:57;10.20;55.00
32147;DHT22;32190;49.112;8.598;2023-03-14T23:32:47;10.40;54.70
32147;DHT22;32190;49.112;8.598;2023-03-14T23:38:40;10.50;54.40
32147;DHT22;32190;49.112;8.598;2023-03-14T23:44:31;10.60;54.20
32147;DHT22;32190;49.112;8.598;2023-03-14T23:50:21;10.70;54.10
32147;DHT22;32190;49.112;8.598;2023-03-14T23:56:13;10.70;54.00
